Volcan Mountain (221) Station Data

Red Flag Warning: No
Fire Weather Zone: 258
SDGE Region: Ramona
Lat/Lon: 33.103/-116.58

Observations

Time Wind Speed/Gust Temp(F) RH Fuel Moist Fuel Temp(F) Dewpt(F) Tmax(F) Tmin(F) Accum Precip 10-min Precip SL Press(mb)
3/29 8:00am 73 20 G 23 53° 22% - - 16° 54° 49.4° - - 1016.0
3/29 7:50am 75 21 G 24 53° 22% - - 15° 53.8° 49.4° - - 1016.0
3/29 7:40am 72 19 G 22 53° 21% - - 15° 53.8° 49.4° - - 1016.0
3/29 7:30am 71 20 G 23 53° 21% - - 14° 53.5° 49.4° - - 1016.0
3/29 7:20am 70 20 G 23 53° 21% - - 14° 53.5° 49.4° - - 1016.0
3/29 7:10am 68 20 G 23 52° 20% - - 13° 52.8° 49.4° - - 1016.0
3/29 7:00am 67 20 G 23 52° 20% - - 13° 52.5° 49.4° - - 1016.0
3/29 6:50am 69 20 G 22 52° 20% - - 12° 52° 49.4° - - 1016.0
3/29 6:40am 70 20 G 22 51° 20% - - 12° 52° 49.4° - - 1016.0
3/29 6:30am 73 16 G 19 51° 21% - - 12° 52° 49.4° - - 1016.0
3/29 6:20am 76 15 G 18 51° 21% - - 12° 52° 49.4° - - 1017.0
3/29 6:10am 75 17 G 19 51° 21% - - 12° 52° 49.4° - - 1016.0
3/29 6:00am 75 18 G 22 51° 21% - - 12° 52° 49.4° - - 1016.0
3/29 5:50am 72 20 G 23 51° 21% - - 12° 52° 49.4° - - 1016.0
3/29 5:40am 73 21 G 26 51° 21% - - 12° 52° 49.4° - - 1016.0
3/29 5:30am 75 20 G 23 51° 21% - - 12° 52° 49.4° - - 1016.0
3/29 5:20am 74 20 G 23 51° 21% - - 12° 52° 49.4° - - 1016.0
3/29 5:10am 78 19 G 21 51° 21% - - 12° 52° 49.4° - - 1016.0
3/29 5:00am 81 18 G 21 51° 21% - - 12° 52° 49.4° - - 1016.0
3/29 4:50am 76 19 G 22 51° 21% - - 12° 52° 49.4° - - 1016.0
3/29 4:40am 73 19 G 23 51° 20% - - 12° 52° 49.4° - - 1016.0
3/29 4:30am 75 18 G 22 51° 20% - - 12° 52° 49.4° - - 1016.0
3/29 4:20am 78 17 G 19 51° 20% - - 12° 52° 49.4° - - 1016.0
3/29 4:10am 81 17 G 21 51° 20% - - 11° 51.8° 49.4° - - 1016.0
3/29 4:00am 79 17 G 21 51° 20% - - 12° 51.8° 49.4° - - 1016.0
3/29 3:50am 78 18 G 21 51° 20% - - 12° 51.8° 49.4° - - 1016.0
3/29 3:40am 77 19 G 23 51° 20% - - 12° 51.7° 49.4° - - 1016.0
3/29 3:30am 75 19 G 22 51° 21% - - 12° 51.7° 49.4° - - 1016.0
3/29 3:20am 74 19 G 22 51° 21% - - 12° 51.7° 49.4° - - 1016.0
3/29 3:10am 76 18 G 23 51° 21% - - 12° 51.7° 49.4° - - 1016.0
3/29 3:00am 76 19 G 24 51° 21% - - 13° 51.7° 49.4° - - 1016.0
3/29 2:50am 77 17 G 21 50° 22% - - 13° 51.7° 49.4° - - 1016.0
3/29 2:40am 82 15 G 18 50° 22% - - 13° 51.7° 49.4° - - 1017.0
3/29 2:30am 76 19 G 22 51° 22% - - 13° 51.7° 49.4° - - 1016.0
3/29 2:20am 75 19 G 24 51° 22% - - 13° 51.7° 49.4° - - 1016.0
3/29 2:10am 79 20 G 24 51° 23% - - 14° 51.7° 49.4° - - 1016.0
3/29 2:00am 80 21 G 25 51° 23% - - 15° 51.7° 49.4° - - 1016.0
3/29 1:50am 80 20 G 23 51° 26% - - 17° 51.7° 49.4° - - 1016.0
3/29 1:40am 79 18 G 22 50° 29% - - 19° 51.7° 49.4° - - 1017.0
3/29 1:30am 77 16 G 20 50° 31% - - 21° 51.7° 49.4° - - 1017.0
3/29 1:20am 80 13 G 16 50° 31% - - 21° 51.7° 49.6° - - 1017.0
3/29 1:10am 82 11 G 14 50° 32% - - 21° 51.7° 49.6° - - 1017.0
3/29 1:00am 83 10 G 12 50° 29% - - 20° 51.7° 49.8° - - 1017.0
3/29 12:50am 81 9 G 12 51° 26% - - 17° 51.7° 50.1° - - 1017.0
3/29 12:40am 85 9 G 10 51° 24% - - 15° 51.7° 50.1° - - 1017.0
3/29 12:30am 89 9 G 11 51° 24% - - 16° 51.7° 50.1° - - 1017.0
3/29 12:20am 80 7 G 10 51° 30% - - 20° 51.4° 50.1° - - 1017.0
3/29 12:10am 82 6 G 8 51° 31% - - 21° 51.2° 50.1° - - 1017.0
3/29 12:00am 81 5 G 7 51° 30% - - 21° 58.1° 41.1° - - 1017.0
3/28 11:50pm 91 5 G 8 51° 31% - - 22° 58.1° 41.1° - - 1017.0
3/28 11:40pm 87 5 G 7 51° 32% - - 22° 58.1° 41.1° - - 1017.0
3/28 11:30pm 72 4 G 6 50° 34% - - 23° 58.1° 41.1° - - 1017.0
3/28 11:20pm 68 4 G 5 51° 33% - - 22° 58.1° 41.1° - - 1017.0
3/28 11:10pm 70 3 G 4 51° 32% - - 22° 58.1° 41.1° - - 1017.0
3/28 11:00pm 88 4 G 5 51° 32% - - 22° 58.1° 41.1° - - 1017.0
3/28 10:50pm 88 5 G 6 51° 31% - - 21° 58.1° 41.1° - - 1017.0
3/28 10:40pm 93 4 G 5 51° 30% - - 21° 58.1° 41.1° - - 1017.0
3/28 10:30pm 72 4 G 7 51° 29% - - 20° 58.1° 41.1° - - 1017.0
3/28 10:20pm 62 6 G 8 52° 28% - - 20° 58.1° 41.1° - - 1017.0
3/28 10:10pm 59 5 G 7 51° 27% - - 19° 58.1° 41.1° - - 1017.0
3/28 10:00pm 37 5 G 7 51° 28% - - 19° 58.1° 41.1° - - 1016.0
3/28 9:50pm 25 2 G 5 51° 31% - - 21° 58.1° 41.1° - - 1017.0
3/28 9:40pm 59 0 G 3 51° 32% - - 22° 58.1° 41.1° - - 1016.0
3/28 9:30pm 37 2 G 6 51° 32% - - 23° 58.1° 41.1° - - 1016.0
3/28 9:20pm 35 3 G 7 51° 33% - - 23° 58.1° 41.1° - - 1016.0
3/28 9:10pm 4 7 G 12 51° 34% - - 24° 58.1° 41.1° - - 1016.0
3/28 9:00pm 347 7 G 12 51° 35% - - 24° 58.1° 41.1° - - 1016.0
3/28 8:50pm 328 4 G 9 51° 36% - - 25° 58.1° 41.1° - - 1016.0
3/28 8:40pm 339 7 G 12 50° 37% - - 25° 58.1° 41.1° - - 1016.0
3/28 8:30pm 310 2 G 9 50° 41% - - 27° 58.1° 41.1° - - 1016.0
3/28 8:20pm 299 2 G 10 49° 44% - - 29° 58.1° 41.1° - - 1016.0
3/28 8:10pm 305 2 G 8 50° 43% - - 29° 58.1° 41.1° - - 1016.0
3/28 8:00pm 342 6 G 10 51° 44% - - 29° 58.1° 41.1° - - 1016.0
3/28 7:50pm 340 7 G 11 51° 46% - - 31° 58.1° 41.1° - - 1015.0
3/28 7:40pm 340 8 G 12 51° 45% - - 31° 58.1° 41.1° - - 1015.0
3/28 7:30pm 345 7 G 12 51° 49% - - 32° 58.1° 41.1° - - 1015.0
3/28 7:20pm 337 5 G 11 49° 63% - - 37° 58.1° 41.1° - - 1016.0
3/28 7:10pm 274 4 G 9 48° 70% - - 39° 58.1° 41.1° - - 1016.0
3/28 7:00pm 269 6 G 10 49° 68% - - 39° 58.1° 41.1° - - 1015.0
3/28 6:50pm 272 4 G 7 50° 65% - - 39° 58.1° 41.1° - - 1015.0
3/28 6:40pm 268 6 G 11 51° 63% - - 39° 58.1° 41.1° - - 1015.0
3/28 6:30pm 266 7 G 11 52° 62% - - 39° 58.1° 41.1° - - 1015.0
3/28 6:20pm 274 7 G 11 52° 61% - - 39° 58.1° 41.1° - - 1014.0
3/28 6:10pm 273 4 G 8 53° 58% - - 39° 58.1° 41.1° - - 1014.0
3/28 6:00pm 286 4 G 8 54° 53% - - 38° 58.1° 41.1° - - 1014.0
3/28 5:50pm 278 5 G 9 55° 52% - - 37° 58.1° 41.1° - - 1013.0
3/28 5:40pm 263 6 G 12 55° 50% - - 37° 58.1° 41.1° - - 1013.0
3/28 5:30pm 273 5 G 11 56° 49% - - 37° 58.1° 41.1° - - 1013.0
3/28 5:20pm 254 7 G 11 55° 48% - - 36° 58.1° 41.1° - - 1013.0
3/28 5:10pm 254 6 G 12 56° 46% - - 36° 58.1° 41.1° - - 1013.0
3/28 5:00pm 268 5 G 11 57° 45% - - 36° 58.1° 41.1° - - 1012.0
3/28 4:50pm 294 3 G 6 57° 44% - - 35° 58.1° 41.1° - - 1012.0
3/28 4:40pm 304 3 G 7 57° 44% - - 35° 58.1° 41.1° - - 1012.0
3/28 4:30pm 266 5 G 10 57° 44% - - 35° 58.1° 41.1° - - 1012.0
3/28 4:20pm 280 4 G 10 57° 45% - - 36° 58.1° 41.1° - - 1012.0
3/28 4:10pm 267 4 G 10 57° 44% - - 36° 58.1° 41.1° - - 1012.0
3/28 4:00pm 264 3 G 8 57° 44% - - 35° 58.1° 41.1° - - 1012.0
3/28 3:50pm 256 3 G 8 57° 39% - - 32° 58.1° 41.1° - - 1012.0
3/28 3:40pm 52 3 G 7 57° 35% - - 29° 58.1° 41.1° - - 1013.0
3/28 3:30pm 258 3 G 7 56° 43% - - 34° 58.1° 41.1° - - 1013.0
3/28 3:20pm 4 3 G 9 57° 41% - - 34° 58.1° 41.1° - - 1013.0
3/28 3:10pm 209 2 G 10 57° 38% - - 32° 58.1° 41.1° - - 1013.0
3/28 3:00pm 103 4 G 14 57° 33% - - 28° 58.1° 41.1° - - 1013.0
3/28 2:50pm 70 7 G 14 56° 25% - - 21° 57.7° 41.1° - - 1013.0
3/28 2:40pm 25 3 G 9 56° 34% - - 28° 57.7° 41.1° - - 1013.0
3/28 2:30pm 291 4 G 8 57° 42% - - 34° 57.7° 41.1° - - 1013.0
3/28 2:20pm 220 2 G 6 55° 44% - - 34° 57.3° 41.1° - - 1014.0
3/28 2:10pm 277 3 G 7 56° 44% - - 34° 57.1° 41.1° - - 1014.0
3/28 2:00pm 307 3 G 8 56° 44% - - 34° 57.1° 41.1° - - 1014.0
3/28 1:50pm 5 3 G 9 55° 43% - - 33° 56.6° 41.1° - - 1014.0
3/28 1:40pm 46 5 G 8 56° 26% - - 21° 56.6° 41.1° - - 1014.0
3/28 1:30pm 131 2 G 5 55° 35% - - 28° 56.5° 41.1° - - 1014.0
3/28 1:20pm 272 4 G 8 55° 37% - - 29° 56.4° 41.1° - - 1014.0
3/28 1:10pm 42 4 G 8 55° 30% - - 24° 56.4° 41.1° - - 1014.0
3/28 1:00pm 82 6 G 9 54° 25% - - 19° 55.6° 41.1° - - 1015.0
3/28 12:50pm 101 6 G 13 54° 24% - - 19° 55.4° 41.1° - - 1015.0
3/28 12:40pm 70 3 G 8 54° 25% - - 19° 55.4° 41.1° - - 1015.0
3/28 12:30pm 34 4 G 8 53° 25% - - 18° 54.4° 41.1° - - 1015.0
3/28 12:20pm 103 6 G 13 54° 25% - - 18° 54.4° 41.1° - - 1015.0
3/28 12:10pm 94 5 G 11 53° 25% - - 18° 54.4° 41.1° - - 1015.0
3/28 12:00pm 69 2 G 8 53° 25% - - 18° 54.4° 41.1° - - 1015.0
3/28 11:50am 60 7 G 13 52° 26% - - 18° 52.4° 41.1° - - 1016.0
3/28 11:40am 82 7 G 11 51° 26% - - 17° 52.1° 41.1° - - 1016.0
3/28 11:30am 78 6 G 11 51° 26% - - 17° 51.7° 41.1° - - 1016.0
3/28 11:20am 54 6 G 11 51° 27% - - 18° 51.6° 41.1° - - 1016.0
3/28 11:10am 91 6 G 10 50° 27% - - 18° 51.1° 41.1° - - 1016.0
3/28 11:00am 99 6 G 12 50° 28% - - 18° 50.7° 41.1° - - 1016.0
3/28 10:50am 98 8 G 13 49° 28% - - 17° 49.9° 41.1° - - 1017.0
3/28 10:40am 72 8 G 13 49° 27% - - 17° 49.9° 41.1° - - 1017.0
3/28 10:30am 82 8 G 13 48° 28% - - 16° 48.9° 41.1° - - 1017.0
3/28 10:20am 82 10 G 14 48° 29% - - 17° 48.3° 41.1° - - 1017.0
3/28 10:10am 89 12 G 17 47° 29% - - 16° 48.2° 41.1° - - 1017.0
3/28 10:00am 89 13 G 18 47° 28% - - 15° 47.5° 41.1° - - 1017.0
3/28 9:50am 87 12 G 16 47° 29% - - 16° 47.5° 41.1° - - 1017.0
3/28 9:40am 83 12 G 16 46° 30% - - 17° 47.4° 41.1° - - 1017.0
3/28 9:30am 80 11 G 18 46° 30% - - 17° 47.4° 41.1° - - 1017.0
3/28 9:20am 83 14 G 18 46° 30% - - 17° 47° 41.1° - - 1017.0
3/28 9:10am 83 14 G 20 46° 30% - - 16° 46.8° 41.1° - - 1017.0
3/28 9:00am 90 16 G 20 45° 30% - - 15° 46.8° 41.1° - - 1017.0
3/28 8:50am 82 15 G 21 46° 31% - - 16° 46.8° 41.1° - - 1017.0
3/28 8:40am 85 17 G 21 45° 30% - - 16° 46.8° 41.1° - - 1017.0
3/28 8:30am 86 16 G 20 45° 31% - - 16° 46.8° 41.1° - - 1016.0
3/28 8:20am 88 17 G 21 45° 31% - - 16° 46.8° 41.1° - - 1016.0
3/28 8:10am 89 16 G 20 45° 33% - - 17° 46.8° 41.1° - - 1016.0
3/28 8:00am 80 16 G 19 45° 34% - - 18° 46.8° 41.1° - - 1016.0
3/28 7:50am 80 16 G 19 45° 33% - - 18° 46.8° 41.1° - - 1016.0
3/28 7:40am 82 17 G 20 44° 34% - - 17° 46.8° 41.1° - - 1016.0
3/28 7:30am 84 16 G 19 44° 33% - - 17° 46.8° 41.1° - - 1016.0
3/28 7:20am 84 15 G 17 44° 34% - - 17° 46.8° 41.1° - - 1016.0
3/28 7:10am 78 13 G 16 44° 32% - - 16° 46.8° 41.1° - - 1016.0
3/28 7:00am 79 14 G 17 43° 31% - - 15° 46.8° 41.1° - - 1016.0
3/28 6:50am 77 13 G 16 43° 30% - - 14° 46.8° 41.1° - - 1016.0
3/28 6:40am 68 14 G 16 44° 27% - - 12° 46.8° 41.1° - - 1016.0
3/28 6:30am 72 13 G 16 44° 26% - - 11° 46.8° 41.1° - - 1016.0
3/28 6:20am 64 9 G 11 44° 27% - - 12° 46.8° 41.1° - - 1016.0
3/28 6:10am 62 10 G 14 44° 25% - - 11° 46.8° 41.1° - - 1016.0
3/28 6:00am 51 8 G 10 44° 26% - - 11° 46.8° 41.1° - - 1016.0